createdAt,value
2018-05-16T00:01:17.296Z,9.55
2018-05-16T00:03:44.794Z,7.95
2018-05-16T00:06:12.279Z,6.95
2018-05-16T00:08:39.821Z,7.37
2018-05-16T00:11:07.322Z,7.18
2018-05-16T00:13:34.803Z,7.40
2018-05-16T00:16:02.252Z,7.47
2018-05-16T00:18:29.688Z,7.22
2018-05-16T00:20:57.207Z,7.68
2018-05-16T00:23:24.736Z,7.32
2018-05-16T00:25:52.414Z,7.87
2018-05-16T00:28:20.921Z,7.40
2018-05-16T00:30:48.390Z,7.70
2018-05-16T00:33:15.831Z,8.20
2018-05-16T00:35:44.200Z,8.20
2018-05-16T00:38:11.679Z,8.30
2018-05-16T00:40:39.120Z,8.10
2018-05-16T00:43:08.002Z,8.77
2018-05-16T00:45:35.543Z,8.65
2018-05-16T00:48:03.008Z,8.85
2018-05-16T00:50:30.429Z,8.75
2018-05-16T00:52:57.981Z,9.33
2018-05-16T00:55:25.445Z,9.20
2018-05-16T00:57:53.001Z,9.20
2018-05-16T01:00:20.467Z,9.60
2018-05-16T01:02:47.911Z,9.27
2018-05-16T01:05:15.355Z,9.63
2018-05-16T01:07:42.912Z,9.73
2018-05-16T01:10:10.439Z,9.80
2018-05-16T01:12:37.899Z,9.50
2018-05-16T01:15:05.717Z,9.98
2018-05-16T01:17:34.283Z,9.73
2018-05-16T01:20:01.739Z,9.63
2018-05-16T01:22:52.917Z,9.77
2018-05-16T01:25:20.328Z,9.83
2018-05-16T01:27:49.165Z,9.93
2018-05-16T01:30:16.595Z,9.57
2018-05-16T01:32:53.655Z,10.02
2018-05-16T01:35:21.133Z,10.23
2018-05-16T01:37:48.585Z,9.93
2018-05-16T01:40:16.075Z,10.10
2018-05-16T01:42:43.541Z,10.63
2018-05-16T01:45:11.019Z,11.45
2018-05-16T01:47:38.774Z,12.63
2018-05-16T01:50:06.207Z,12.13
2018-05-16T01:52:33.665Z,12.35
2018-05-16T01:55:01.470Z,14.15
2018-05-16T01:57:28.903Z,13.70
2018-05-16T01:59:56.563Z,15.30
2018-05-16T02:02:24.023Z,15.93
2018-05-16T02:04:51.483Z,17.83
2018-05-16T02:07:18.940Z,18.92
2018-05-16T02:09:46.409Z,20.15
2018-05-16T02:12:13.897Z,20.70
2018-05-16T02:14:41.396Z,20.23
2018-05-16T02:17:08.865Z,20.02
2018-05-16T02:19:36.324Z,20.37
2018-05-16T02:22:03.783Z,19.75
2018-05-16T02:24:31.297Z,20.17
2018-05-16T02:26:58.759Z,19.63
2018-05-16T02:29:26.195Z,20.00
2018-05-16T02:31:53.703Z,20.37
2018-05-16T02:34:21.155Z,20.20
2018-05-16T02:36:48.611Z,21.10
2018-05-16T02:39:16.075Z,20.75
2018-05-16T02:41:43.555Z,20.37
2018-05-16T02:44:12.137Z,21.30
2018-05-16T02:46:39.595Z,20.95
2018-05-16T02:49:07.355Z,20.77
2018-05-16T02:51:34.849Z,21.85
2018-05-16T02:54:02.351Z,20.65
2018-05-16T02:56:30.255Z,21.37
2018-05-16T02:58:57.715Z,21.90
2018-05-16T03:01:25.935Z,21.93
2018-05-16T03:03:53.413Z,23.00
2018-05-16T03:06:20.869Z,21.98
2018-05-16T03:08:48.355Z,21.90
2018-05-16T03:11:15.812Z,23.17
2018-05-16T03:13:43.437Z,23.45
2018-05-16T03:16:10.984Z,24.37
2018-05-16T03:18:38.515Z,24.02
2018-05-16T03:21:05.943Z,24.27
2018-05-16T03:23:33.491Z,23.12
2018-05-16T03:26:01.120Z,23.73
2018-05-16T03:28:28.606Z,23.75
2018-05-16T03:30:56.107Z,24.87
2018-05-16T03:33:23.850Z,25.48
2018-05-16T03:35:51.233Z,26.50
2018-05-16T03:38:18.687Z,25.95
2018-05-16T03:40:46.130Z,25.17
2018-05-16T03:43:13.627Z,25.73
2018-05-16T03:45:41.054Z,25.60
2018-05-16T03:48:08.570Z,25.48
2018-05-16T03:50:36.063Z,26.65
2018-05-16T03:55:56.800Z,26.70
2018-05-16T03:58:36.479Z,26.45
2018-05-16T04:01:15.670Z,27.17
2018-05-16T04:03:55.011Z,26.17
2018-05-16T04:06:22.596Z,26.30
2018-05-16T04:08:50.077Z,27.77
2018-05-16T04:11:17.566Z,27.37
2018-05-16T04:13:44.999Z,27.85
2018-05-16T04:16:13.499Z,29.12
2018-05-16T04:18:40.965Z,30.83
2018-05-16T04:21:08.415Z,29.50
2018-05-16T04:23:36.684Z,30.93
2018-05-16T04:26:04.161Z,31.30
2018-05-16T04:28:31.638Z,30.92
2018-05-16T04:30:59.095Z,31.15
2018-05-16T04:33:26.542Z,30.57
2018-05-16T04:35:53.997Z,32.35
2018-05-16T04:38:21.518Z,33.08
2018-05-16T04:40:49.038Z,32.20
2018-05-16T04:43:16.540Z,31.92
2018-05-16T04:45:44.218Z,31.67
2018-05-16T04:48:11.848Z,32.65
2018-05-16T04:50:39.308Z,32.45
2018-05-16T04:53:06.836Z,32.73
2018-05-16T04:55:34.330Z,32.22
2018-05-16T04:58:01.788Z,31.08
2018-05-16T05:00:30.126Z,31.23
2018-05-16T05:02:58.690Z,32.85
2018-05-16T05:05:26.401Z,31.60
2018-05-16T05:07:53.895Z,34.65
2018-05-16T05:10:21.432Z,34.05
2018-05-16T05:12:48.906Z,36.78
2018-05-16T05:15:16.375Z,33.35
2018-05-16T05:17:44.130Z,33.28
2018-05-16T05:20:12.222Z,33.03
2018-05-16T05:22:39.880Z,34.00
2018-05-16T05:25:07.347Z,32.85
2018-05-16T05:27:34.796Z,32.92
2018-05-16T05:30:02.589Z,34.35
2018-05-16T05:32:30.279Z,35.05
2018-05-16T05:34:57.732Z,38.20
2018-05-16T05:37:25.234Z,36.15
2018-05-16T05:39:52.762Z,34.20
2018-05-16T05:42:20.238Z,34.08
2018-05-16T05:44:47.684Z,35.13
2018-05-16T05:47:15.146Z,34.03
2018-05-16T05:49:42.716Z,34.00
2018-05-16T05:52:10.167Z,34.22
2018-05-16T05:54:37.659Z,34.17
2018-05-16T05:57:05.114Z,33.30
2018-05-16T05:59:33.484Z,28.87
2018-05-16T06:02:00.992Z,29.77
2018-05-16T06:04:28.512Z,30.77
2018-05-16T06:06:56.037Z,31.63
2018-05-16T06:09:23.485Z,32.20
2018-05-16T06:11:50.920Z,32.17
2018-05-16T06:14:18.400Z,32.30
2018-05-16T06:16:45.884Z,30.07
2018-05-16T06:19:13.353Z,30.47
2018-05-16T06:21:40.810Z,29.80
2018-05-16T06:24:08.361Z,27.93
2018-05-16T06:26:35.829Z,29.70
2018-05-16T06:29:03.269Z,30.67
2018-05-16T06:31:30.767Z,31.23
2018-05-16T06:33:58.220Z,32.37
2018-05-16T06:36:25.670Z,32.73
2018-05-16T06:38:53.152Z,33.63
2018-05-16T06:41:20.613Z,31.83
2018-05-16T06:43:58.051Z,39.77
2018-05-16T06:46:25.538Z,31.90
2018-05-16T06:48:53.002Z,32.47
2018-05-16T06:51:20.475Z,36.17
2018-05-16T06:53:48.014Z,32.13
2018-05-16T06:56:15.523Z,35.47
2018-05-16T06:58:43.012Z,31.93
2018-05-16T07:01:10.526Z,32.07
2018-05-16T07:03:37.974Z,32.17
2018-05-16T07:06:05.446Z,33.50
2018-05-16T07:08:33.010Z,33.07
2018-05-16T07:11:00.525Z,30.20
2018-05-16T07:13:28.063Z,32.20
2018-05-16T07:15:55.520Z,34.43
2018-05-16T07:18:23.036Z,31.47
2018-05-16T07:20:50.486Z,33.33
2018-05-16T07:23:17.939Z,28.33
2018-05-16T07:25:45.427Z,27.20
2018-05-16T07:28:13.129Z,28.73
2018-05-16T07:30:40.650Z,27.67
2018-05-16T07:33:08.191Z,31.70
2018-05-16T07:35:35.641Z,29.00
2018-05-16T07:38:03.120Z,31.37
2018-05-16T07:40:30.574Z,31.23
2018-05-16T07:42:58.092Z,30.47
2018-05-16T07:45:25.533Z,30.73
2018-05-16T07:47:53.018Z,32.13
2018-05-16T07:50:20.530Z,31.33
2018-05-16T07:52:48.008Z,31.03
2018-05-16T07:55:15.451Z,32.73
2018-05-16T07:57:44.005Z,38.97
2018-05-16T08:00:13.893Z,34.37
2018-05-16T08:03:07.541Z,29.70
2018-05-16T08:05:58.769Z,29.80
2018-05-16T08:08:29.210Z,32.67
2018-05-16T08:10:58.816Z,33.47
2018-05-16T08:15:59.494Z,31.63
2018-05-16T08:18:27.299Z,31.47
2018-05-16T08:20:54.975Z,30.30
2018-05-16T08:23:30.332Z,29.53
2018-05-16T08:26:02.588Z,28.57
2018-05-16T08:28:30.534Z,28.67
2018-05-16T08:34:28.023Z,30.87
2018-05-16T08:36:59.181Z,27.77
2018-05-16T08:39:27.504Z,26.27
2018-05-16T08:41:57.715Z,27.90
2018-05-16T09:20:55.523Z,30.07
2018-05-16T09:23:24.049Z,27.30
2018-05-16T09:25:51.612Z,28.23
2018-05-16T09:28:19.296Z,30.30
2018-05-16T09:30:46.991Z,30.83
2018-05-16T09:33:33.747Z,29.50
2018-05-16T09:36:01.212Z,27.80
2018-05-16T09:38:28.863Z,29.23
2018-05-16T09:40:56.409Z,30.10
2018-05-16T09:43:23.905Z,30.63
2018-05-16T09:45:51.423Z,31.17
2018-05-16T09:48:19.833Z,31.00
2018-05-16T09:50:47.370Z,29.70
2018-05-16T09:53:14.825Z,32.53
2018-05-16T09:55:42.334Z,31.50
2018-05-16T09:58:09.799Z,30.03
2018-05-16T10:00:37.260Z,30.93
2018-05-16T10:03:04.776Z,29.90
2018-05-16T10:05:32.279Z,29.00
2018-05-16T10:07:59.778Z,30.30
2018-05-16T10:10:27.325Z,35.93
2018-05-16T10:12:54.839Z,32.13
2018-05-16T10:15:22.308Z,28.77
2018-05-16T10:17:49.828Z,28.10
2018-05-16T10:20:17.260Z,28.87
2018-05-16T10:22:45.478Z,27.87
2018-05-16T10:25:12.951Z,29.13
2018-05-16T10:27:40.425Z,31.03
2018-05-16T10:30:07.893Z,28.90
2018-05-16T10:32:35.341Z,32.37
2018-05-16T10:35:02.814Z,33.97
2018-05-16T10:37:30.263Z,30.93
2018-05-16T10:39:57.749Z,29.77
2018-05-16T10:42:25.206Z,30.20
2018-05-16T10:44:52.672Z,27.77
2018-05-16T10:47:20.200Z,30.17
2018-05-16T10:49:47.648Z,27.00
2018-05-16T10:52:15.135Z,26.73
2018-05-16T10:54:42.591Z,25.70
2018-05-16T10:57:10.078Z,25.73
2018-05-16T10:59:37.561Z,26.87
2018-05-16T11:02:05.043Z,23.83
2018-05-16T11:04:32.494Z,24.47
2018-05-16T11:06:59.946Z,23.23
2018-05-16T11:09:27.410Z,25.73
2018-05-16T11:11:54.872Z,21.70
2018-05-16T11:14:22.325Z,20.15
2018-05-16T11:16:49.819Z,19.80
2018-05-16T11:19:17.286Z,19.98
2018-05-16T11:21:44.760Z,18.27
2018-05-16T11:24:12.232Z,18.97
2018-05-16T11:26:39.974Z,20.77
2018-05-16T11:29:07.476Z,21.17
2018-05-16T11:31:34.952Z,20.65
2018-05-16T11:34:02.529Z,22.37
2018-05-16T11:36:30.035Z,25.67
2018-05-16T11:38:57.487Z,22.65
2018-05-16T11:41:24.967Z,22.70
2018-05-16T11:43:52.465Z,24.08
2018-05-16T11:46:19.941Z,25.08
2018-05-16T11:48:47.468Z,25.95
2018-05-16T11:51:14.891Z,29.20
2018-05-16T11:53:42.371Z,26.30
2018-05-16T11:56:09.826Z,25.25
2018-05-16T11:58:37.333Z,26.25
2018-05-16T12:01:04.833Z,25.73
2018-05-16T12:03:32.692Z,25.40
2018-05-16T12:06:00.146Z,27.35
2018-05-16T12:08:27.611Z,27.35
2018-05-16T12:10:55.053Z,47.90
2018-05-16T12:13:22.530Z,41.20
2018-05-16T12:15:50.011Z,34.70
2018-05-16T12:18:17.482Z,32.33
2018-05-16T12:20:44.957Z,29.35
2018-05-16T12:23:12.482Z,71.97
2018-05-16T12:25:39.938Z,30.92
2018-05-16T12:28:07.380Z,30.50
2018-05-16T12:30:34.888Z,29.02
2018-05-16T12:33:02.416Z,29.73
2018-05-16T12:35:29.904Z,34.75
2018-05-16T12:37:57.407Z,29.83
2018-05-16T12:40:24.903Z,29.05
2018-05-16T12:43:04.244Z,27.17
2018-05-16T12:45:31.747Z,30.13
2018-05-16T12:47:59.211Z,27.55
2018-05-16T12:50:26.717Z,31.07
2018-05-16T12:52:54.196Z,27.58
2018-05-16T12:55:21.679Z,23.57
2018-05-16T12:57:49.140Z,30.42
2018-05-16T13:00:16.640Z,31.42
2018-05-16T13:02:44.155Z,28.83
2018-05-16T13:05:11.616Z,31.35
2018-05-16T13:07:39.097Z,28.02
2018-05-16T13:10:06.545Z,28.83
2018-05-16T13:12:33.984Z,26.25
2018-05-16T13:15:01.437Z,25.10
2018-05-16T13:17:28.888Z,25.20
2018-05-16T13:19:56.355Z,25.37
2018-05-16T13:22:23.806Z,25.00
2018-05-16T13:24:51.275Z,27.62
2018-05-16T13:27:18.780Z,27.73
2018-05-16T13:29:46.288Z,29.60
2018-05-16T13:32:13.735Z,28.25
2018-05-16T13:34:41.188Z,26.85
2018-05-16T13:37:08.675Z,26.02
2018-05-16T13:39:36.143Z,26.50
2018-05-16T13:42:03.750Z,26.00
2018-05-16T13:44:31.225Z,26.95
2018-05-16T13:46:58.680Z,26.55
2018-05-16T13:49:26.153Z,25.35
2018-05-16T13:51:53.700Z,29.90
2018-05-16T13:54:21.153Z,26.87
2018-05-16T13:56:48.619Z,25.50
2018-05-16T13:59:16.072Z,24.90
2018-05-16T14:01:43.600Z,25.12
2018-05-16T14:04:11.095Z,23.67
2018-05-16T14:06:38.546Z,24.20
2018-05-16T14:09:05.998Z,24.05
2018-05-16T14:11:33.493Z,24.30
2018-05-16T14:14:00.943Z,23.38
2018-05-16T14:16:28.444Z,23.05
2018-05-16T14:18:55.886Z,21.87
2018-05-16T14:21:23.396Z,20.15
2018-05-16T14:23:50.985Z,20.85
2018-05-16T14:26:18.456Z,21.10
2018-05-16T14:28:45.933Z,20.48
2018-05-16T14:31:13.484Z,19.60
2018-05-16T14:33:40.986Z,20.90
2018-05-16T14:36:08.531Z,23.40
2018-05-16T14:38:36.197Z,23.12
2018-05-16T14:41:03.690Z,20.90
2018-05-16T14:43:31.141Z,20.55
2018-05-16T14:45:58.667Z,24.60
2018-05-16T14:48:26.185Z,22.87
2018-05-16T14:50:53.702Z,21.80
2018-05-16T14:53:21.170Z,20.50
2018-05-16T14:55:48.783Z,20.12
2018-05-16T14:58:16.979Z,20.55
2018-05-16T15:00:47.228Z,20.25
2018-05-16T15:03:14.911Z,20.58
2018-05-16T15:05:42.374Z,20.65
2018-05-16T15:08:09.862Z,20.23
2018-05-16T15:10:37.303Z,20.52
2018-05-16T15:13:04.790Z,29.42
2018-05-16T15:15:32.271Z,20.60
2018-05-16T15:17:59.796Z,21.27
2018-05-16T15:20:27.379Z,22.30
2018-05-16T15:22:59.774Z,20.98
2018-05-16T15:25:27.251Z,20.23
2018-05-16T15:27:54.722Z,22.20
2018-05-16T15:30:22.192Z,17.17
2018-05-16T15:32:50.279Z,13.52
2018-05-16T15:35:17.737Z,15.02
2018-05-16T15:37:45.229Z,15.20
2018-05-16T15:40:12.684Z,14.60
2018-05-16T15:42:40.162Z,16.75
2018-05-16T15:45:07.683Z,19.20
2018-05-16T15:47:35.158Z,16.83
2018-05-16T15:50:02.634Z,21.40
2018-05-16T15:52:30.110Z,15.80
2018-05-16T15:54:57.564Z,15.45
2018-05-16T15:57:25.082Z,17.35
2018-05-16T15:59:52.569Z,15.95
2018-05-16T16:02:20.036Z,17.58
2018-05-16T16:04:47.576Z,19.35
2018-05-16T16:07:15.022Z,16.40
2018-05-16T16:09:42.484Z,16.67
2018-05-16T16:12:10.004Z,14.65
2018-05-16T16:14:37.454Z,15.17
2018-05-16T16:17:05.928Z,14.75
2018-05-16T16:19:33.409Z,14.60
2018-05-16T16:22:00.866Z,16.03
2018-05-16T16:24:28.347Z,14.90
2018-05-16T16:26:55.829Z,17.30
2018-05-16T16:29:23.348Z,16.87
2018-05-16T16:31:50.852Z,17.17
2018-05-16T16:34:18.334Z,17.33
2018-05-16T16:36:45.778Z,18.13
2018-05-16T16:39:13.420Z,16.30
2018-05-16T16:41:40.876Z,16.92
2018-05-16T16:44:08.542Z,19.03
2018-05-16T16:46:36.104Z,15.90
2018-05-16T16:49:03.826Z,16.27
2018-05-16T16:51:31.467Z,16.48
2018-05-16T16:54:00.157Z,17.67
2018-05-16T16:56:27.644Z,18.37
2018-05-16T16:58:55.257Z,16.03
2018-05-16T17:01:22.796Z,16.67
2018-05-16T17:03:50.201Z,17.08
2018-05-16T17:06:17.683Z,16.30
2018-05-16T17:08:45.153Z,17.62
2018-05-16T17:11:12.672Z,17.30
2018-05-16T17:13:40.152Z,17.45
2018-05-16T17:16:07.628Z,16.55
2018-05-16T17:18:35.105Z,18.08
2018-05-16T17:21:02.594Z,17.80
2018-05-16T17:23:30.048Z,19.83
2018-05-16T17:25:57.498Z,19.50
2018-05-16T17:28:25.002Z,20.30
2018-05-16T17:30:52.538Z,22.10
2018-05-16T17:33:20.364Z,24.73
2018-05-16T17:35:48.179Z,23.33
2018-05-16T17:38:17.323Z,22.30
2018-05-16T17:40:45.316Z,22.73
2018-05-16T17:45:48.268Z,16.30
2018-05-16T17:48:17.728Z,13.77
2018-05-16T17:50:47.940Z,13.63
2018-05-16T17:53:17.274Z,12.57
2018-05-16T17:55:45.283Z,12.33
2018-05-16T17:58:12.859Z,12.13
2018-05-16T18:00:41.134Z,12.00
2018-05-16T18:03:09.538Z,12.37
2018-05-16T18:05:44.590Z,14.50
2018-05-16T18:11:15.838Z,12.43
2018-05-16T18:20:08.704Z,10.80
2018-05-16T18:22:51.749Z,10.03
2018-05-16T18:25:20.103Z,10.93
2018-05-16T18:27:47.859Z,12.03
2018-05-16T18:30:19.096Z,11.13
2018-05-16T18:32:50.585Z,10.93
2018-05-16T18:35:18.484Z,10.70
2018-05-16T18:37:49.240Z,10.53
2018-05-16T18:43:06.491Z,10.50
2018-05-16T18:48:36.891Z,10.93
2018-05-16T18:53:52.661Z,12.77
2018-05-16T18:56:21.352Z,11.47
2018-05-16T19:01:36.393Z,12.00
2018-05-16T19:04:04.106Z,11.70
2018-05-16T19:06:32.523Z,11.43
2018-05-16T19:14:23.499Z,11.30
2018-05-16T19:16:54.543Z,12.50
2018-05-16T19:19:24.306Z,11.80
2018-05-16T19:21:53.573Z,14.53
2018-05-16T19:24:21.626Z,12.27
2018-05-16T19:29:53.542Z,11.80
2018-05-16T19:32:22.087Z,12.37
2018-05-16T19:35:10.041Z,13.57
2018-05-16T19:37:37.702Z,11.57
2018-05-16T19:40:17.346Z,11.67
2018-05-16T19:43:04.305Z,11.97
2018-05-16T19:45:33.684Z,12.00
2018-05-16T19:50:34.795Z,12.83
2018-05-16T20:08:15.282Z,12.80
2018-05-16T20:10:51.548Z,12.73
2018-05-16T20:13:42.670Z,12.93
2018-05-16T20:16:10.313Z,11.93
2018-05-16T20:56:50.460Z,21.20
2018-05-16T20:59:22.812Z,20.70
2018-05-16T21:01:51.609Z,23.43
2018-05-16T21:04:20.288Z,25.53
2018-05-16T21:06:48.046Z,22.93
2018-05-16T21:09:16.976Z,27.03
2018-05-16T21:11:45.834Z,24.33
2018-05-16T21:16:56.272Z,25.23
2018-05-16T21:19:25.616Z,26.03
2018-05-16T21:21:53.370Z,26.20
2018-05-16T21:24:20.925Z,27.17
2018-05-16T21:26:48.537Z,27.30
2018-05-16T21:29:16.121Z,27.60
2018-05-16T21:31:43.825Z,27.87
2018-05-16T21:34:21.103Z,28.67
2018-05-16T21:36:48.551Z,29.37
2018-05-16T21:39:16.021Z,27.63
2018-05-16T21:41:43.573Z,26.70
2018-05-16T21:44:11.203Z,28.20
2018-05-16T21:46:38.725Z,27.80
2018-05-16T21:49:07.153Z,26.67
2018-05-16T21:51:34.610Z,27.60
2018-05-16T21:54:21.405Z,27.77
2018-05-16T21:56:48.922Z,30.17
2018-05-16T21:59:16.408Z,29.03
2018-05-16T22:01:43.905Z,29.10
2018-05-16T22:04:16.331Z,29.17
2018-05-16T22:06:44.001Z,27.30
2018-05-16T22:09:11.483Z,28.53
2018-05-16T22:11:38.967Z,27.90
2018-05-16T22:14:06.435Z,28.50
2018-05-16T22:16:33.877Z,28.40
2018-05-16T22:19:01.329Z,29.27
2018-05-16T22:21:28.816Z,29.00
2018-05-16T22:23:56.252Z,27.17
2018-05-16T22:26:23.723Z,28.03
2018-05-16T22:28:51.181Z,27.80
2018-05-16T22:31:24.263Z,28.13
2018-05-16T22:33:57.374Z,28.37
2018-05-16T22:36:30.553Z,28.17
2018-05-16T22:39:04.063Z,28.20
2018-05-16T22:41:37.434Z,28.23
2018-05-16T22:47:11.643Z,27.83
2018-05-16T22:49:40.061Z,28.43
2018-05-16T22:52:07.541Z,27.70
2018-05-16T22:57:28.423Z,28.30
2018-05-16T22:59:56.207Z,28.20
2018-05-16T23:02:23.746Z,28.87
2018-05-16T23:04:51.207Z,27.97
2018-05-16T23:07:19.132Z,26.70
2018-05-16T23:09:48.266Z,25.67
2018-05-16T23:12:15.829Z,28.13
2018-05-16T23:14:44.058Z,28.03
2018-05-16T23:17:11.621Z,26.83
2018-05-16T23:19:39.143Z,29.10
2018-05-16T23:22:08.457Z,27.10
2018-05-16T23:24:51.118Z,26.20
2018-05-16T23:27:18.735Z,27.10
2018-05-16T23:29:46.268Z,27.63
2018-05-16T23:32:13.830Z,25.50
2018-05-16T23:34:42.354Z,25.33
2018-05-16T23:37:09.960Z,26.37
2018-05-16T23:39:37.735Z,25.63
2018-05-16T23:42:05.276Z,25.37
2018-05-16T23:44:32.861Z,25.83
2018-05-16T23:47:00.451Z,25.90
2018-05-16T23:49:28.835Z,25.43
2018-05-16T23:51:57.903Z,25.80
2018-05-16T23:54:26.307Z,25.93
2018-05-16T23:56:53.914Z,24.37
2018-05-16T23:59:21.447Z,25.33
